sensor_id;sensor_type;location;lat;lon;timestamp;P1;P2;P0
44881;PMS5003;30612;38.304;23.786;2023-12-20T00:01:10;3.80;2.60;0.00
44881;PMS5003;30612;38.304;23.786;2023-12-20T00:03:37;3.80;3.80;2.60
44881;PMS5003;30612;38.304;23.786;2023-12-20T00:06:08;3.00;3.00;1.00
44881;PMS5003;30612;38.304;23.786;2023-12-20T00:08:36;1.00;1.00;1.00
44881;PMS5003;30612;38.304;23.786;2023-12-20T00:11:04;6.00;3.80;1.00
44881;PMS5003;30612;38.304;23.786;2023-12-20T00:13:31;5.20;5.20;2.20
44881;PMS5003;30612;38.304;23.786;2023-12-20T00:15:59;3.00;3.00;1.00
44881;PMS5003;30612;38.304;23.786;2023-12-20T00:18:26;3.60;3.60;1.00
44881;PMS5003;30612;38.304;23.786;2023-12-20T00:20:54;3.00;3.00;1.00
44881;PMS5003;30612;38.304;23.786;2023-12-20T00:23:21;5.00;4.40;3.20
44881;PMS5003;30612;38.304;23.786;2023-12-20T00:25:50;4.00;3.80;1.80
44881;PMS5003;30612;38.304;23.786;2023-12-20T00:28:17;4.00;3.40;3.00
44881;PMS5003;30612;38.304;23.786;2023-12-20T00:30:45;3.00;3.00;1.00
44881;PMS5003;30612;38.304;23.786;2023-12-20T00:33:12;3.20;3.20;1.00
44881;PMS5003;30612;38.304;23.786;2023-12-20T00:35:40;7.00;5.40;2.20
44881;PMS5003;30612;38.304;23.786;2023-12-20T00:38:07;4.00;4.00;3.00
44881;PMS5003;30612;38.304;23.786;2023-12-20T00:40:35;6.60;4.80;1.80
44881;PMS5003;30612;38.304;23.786;2023-12-20T00:43:03;6.00;3.20;1.00
44881;PMS5003;30612;38.304;23.786;2023-12-20T00:45:31;1.80;1.80;0.20
44881;PMS5003;30612;38.304;23.786;2023-12-20T00:47:58;6.20;1.40;1.00
44881;PMS5003;30612;38.304;23.786;2023-12-20T00:50:26;4.00;4.00;2.20
44881;PMS5003;30612;38.304;23.786;2023-12-20T00:52:56;7.20;3.80;0.40
44881;PMS5003;30612;38.304;23.786;2023-12-20T00:55:23;3.00;3.00;1.00
44881;PMS5003;30612;38.304;23.786;2023-12-20T00:57:51;1.00;1.00;0.40
44881;PMS5003;30612;38.304;23.786;2023-12-20T01:00:20;5.00;1.80;1.00
44881;PMS5003;30612;38.304;23.786;2023-12-20T01:02:48;4.00;3.00;1.00
44881;PMS5003;30612;38.304;23.786;2023-12-20T01:05:17;0.60;0.60;0.40
44881;PMS5003;30612;38.304;23.786;2023-12-20T01:07:46;3.00;3.00;0.80
44881;PMS5003;30612;38.304;23.786;2023-12-20T01:10:13;2.80;0.20;0.00
44881;PMS5003;30612;38.304;23.786;2023-12-20T01:12:41;0.00;0.00;0.00
44881;PMS5003;30612;38.304;23.786;2023-12-20T01:15:08;0.80;0.80;0.40
44881;PMS5003;30612;38.304;23.786;2023-12-20T01:17:36;5.20;3.00;0.80
44881;PMS5003;30612;38.304;23.786;2023-12-20T01:20:03;3.20;3.00;1.00
44881;PMS5003;30612;38.304;23.786;2023-12-20T01:22:31;3.00;1.00;0.00
44881;PMS5003;30612;38.304;23.786;2023-12-20T01:24:59;7.00;3.40;1.00
44881;PMS5003;30612;38.304;23.786;2023-12-20T01:27:26;2.60;1.00;0.00
44881;PMS5003;30612;38.304;23.786;2023-12-20T01:29:54;1.00;1.00;1.00
44881;PMS5003;30612;38.304;23.786;2023-12-20T01:32:21;1.00;1.00;0.00
44881;PMS5003;30612;38.304;23.786;2023-12-20T01:34:49;1.40;1.00;0.60
44881;PMS5003;30612;38.304;23.786;2023-12-20T01:37:17;0.00;0.00;0.00
44881;PMS5003;30612;38.304;23.786;2023-12-20T01:39:44;0.40;0.40;0.00
44881;PMS5003;30612;38.304;23.786;2023-12-20T01:42:12;1.00;1.00;0.00
44881;PMS5003;30612;38.304;23.786;2023-12-20T01:44:39;0.80;0.80;0.00
44881;PMS5003;30612;38.304;23.786;2023-12-20T01:47:07;1.00;1.00;0.00
44881;PMS5003;30612;38.304;23.786;2023-12-20T01:49:35;1.00;1.00;1.00
44881;PMS5003;30612;38.304;23.786;2023-12-20T01:52:02;3.20;3.20;1.00
44881;PMS5003;30612;38.304;23.786;2023-12-20T01:54:30;1.00;1.00;0.00
44881;PMS5003;30612;38.304;23.786;2023-12-20T01:56:58;1.00;1.00;0.60
44881;PMS5003;30612;38.304;23.786;2023-12-20T01:59:26;3.00;3.00;1.00
44881;PMS5003;30612;38.304;23.786;2023-12-20T02:01:56;1.40;1.40;1.00
44881;PMS5003;30612;38.304;23.786;2023-12-20T02:04:24;1.00;1.00;0.00
44881;PMS5003;30612;38.304;23.786;2023-12-20T02:06:52;1.00;1.00;0.00
44881;PMS5003;30612;38.304;23.786;2023-12-20T02:09:20;3.00;1.00;0.00
44881;PMS5003;30612;38.304;23.786;2023-12-20T02:11:49;1.40;1.00;0.60
44881;PMS5003;30612;38.304;23.786;2023-12-20T02:14:17;1.00;1.00;0.20
44881;PMS5003;30612;38.304;23.786;2023-12-20T02:16:44;1.00;1.00;0.40
44881;PMS5003;30612;38.304;23.786;2023-12-20T02:19:14;1.00;1.00;0.60
44881;PMS5003;30612;38.304;23.786;2023-12-20T02:21:42;2.20;1.00;0.60
44881;PMS5003;30612;38.304;23.786;2023-12-20T02:24:10;3.00;3.00;0.00
44881;PMS5003;30612;38.304;23.786;2023-12-20T02:26:37;1.00;1.00;0.60
44881;PMS5003;30612;38.304;23.786;2023-12-20T02:29:05;3.00;3.00;0.80
44881;PMS5003;30612;38.304;23.786;2023-12-20T02:31:32;0.00;0.00;0.00
44881;PMS5003;30612;38.304;23.786;2023-12-20T02:34:00;2.60;2.60;1.00
44881;PMS5003;30612;38.304;23.786;2023-12-20T02:36:27;1.00;1.00;0.20
44881;PMS5003;30612;38.304;23.786;2023-12-20T02:38:55;1.60;1.00;0.00
44881;PMS5003;30612;38.304;23.786;2023-12-20T02:41:22;1.20;0.80;0.40
44881;PMS5003;30612;38.304;23.786;2023-12-20T02:43:50;1.80;1.80;0.40
44881;PMS5003;30612;38.304;23.786;2023-12-20T02:46:17;2.80;2.20;0.80
44881;PMS5003;30612;38.304;23.786;2023-12-20T02:48:45;3.00;3.00;1.00
44881;PMS5003;30612;38.304;23.786;2023-12-20T02:51:14;3.60;3.60;1.00
44881;PMS5003;30612;38.304;23.786;2023-12-20T02:53:41;4.80;2.60;1.00
44881;PMS5003;30612;38.304;23.786;2023-12-20T02:56:09;1.00;1.00;0.60
44881;PMS5003;30612;38.304;23.786;2023-12-20T02:58:36;1.00;1.00;0.40
44881;PMS5003;30612;38.304;23.786;2023-12-20T03:01:04;1.00;1.00;0.00
44881;PMS5003;30612;38.304;23.786;2023-12-20T03:03:31;1.40;1.40;1.00
44881;PMS5003;30612;38.304;23.786;2023-12-20T03:05:59;3.20;3.20;0.20
44881;PMS5003;30612;38.304;23.786;2023-12-20T03:08:27;6.20;1.40;0.40
44881;PMS5003;30612;38.304;23.786;2023-12-20T03:10:58;2.60;2.60;0.60
44881;PMS5003;30612;38.304;23.786;2023-12-20T03:13:26;0.80;0.80;0.20
44881;PMS5003;30612;38.304;23.786;2023-12-20T03:15:53;1.80;1.80;1.00
44881;PMS5003;30612;38.304;23.786;2023-12-20T03:18:21;3.00;3.00;1.00
44881;PMS5003;30612;38.304;23.786;2023-12-20T03:20:48;4.80;4.80;3.00
44881;PMS5003;30612;38.304;23.786;2023-12-20T03:23:17;4.00;4.00;2.20
44881;PMS5003;30612;38.304;23.786;2023-12-20T03:25:45;4.80;4.40;3.00
44881;PMS5003;30612;38.304;23.786;2023-12-20T03:28:14;5.60;3.60;1.40
44881;PMS5003;30612;38.304;23.786;2023-12-20T03:30:42;5.00;3.20;1.00
44881;PMS5003;30612;38.304;23.786;2023-12-20T03:33:10;4.00;2.20;1.00
44881;PMS5003;30612;38.304;23.786;2023-12-20T03:35:37;1.80;1.80;1.00
44881;PMS5003;30612;38.304;23.786;2023-12-20T03:38:05;3.00;3.00;1.00
44881;PMS5003;30612;38.304;23.786;2023-12-20T03:40:32;5.60;1.80;0.00
44881;PMS5003;30612;38.304;23.786;2023-12-20T03:42:59;3.60;3.60;1.00
44881;PMS5003;30612;38.304;23.786;2023-12-20T03:45:27;2.20;2.20;1.00
44881;PMS5003;30612;38.304;23.786;2023-12-20T03:47:55;3.00;1.40;1.00
44881;PMS5003;30612;38.304;23.786;2023-12-20T03:50:23;3.00;3.00;1.00
44881;PMS5003;30612;38.304;23.786;2023-12-20T03:52:51;2.20;2.20;1.00
44881;PMS5003;30612;38.304;23.786;2023-12-20T03:55:18;4.40;3.00;1.00
44881;PMS5003;30612;38.304;23.786;2023-12-20T03:57:46;5.00;1.80;0.20
44881;PMS5003;30612;38.304;23.786;2023-12-20T04:00:14;3.60;3.60;1.00
44881;PMS5003;30612;38.304;23.786;2023-12-20T04:02:42;3.00;3.00;1.00
44881;PMS5003;30612;38.304;23.786;2023-12-20T04:05:10;1.40;1.00;0.40
44881;PMS5003;30612;38.304;23.786;2023-12-20T04:07:37;3.60;3.60;1.00
44881;PMS5003;30612;38.304;23.786;2023-12-20T04:10:06;1.60;1.60;0.00
44881;PMS5003;30612;38.304;23.786;2023-12-20T04:12:33;10.40;7.00;3.00
44881;PMS5003;30612;38.304;23.786;2023-12-20T04:15:01;7.00;6.20;3.40
44881;PMS5003;30612;38.304;23.786;2023-12-20T04:17:30;4.00;3.00;1.00
44881;PMS5003;30612;38.304;23.786;2023-12-20T04:19:57;3.80;3.80;1.80
44881;PMS5003;30612;38.304;23.786;2023-12-20T04:22:25;4.80;3.20;1.00
44881;PMS5003;30612;38.304;23.786;2023-12-20T04:24:53;3.60;3.60;1.00
44881;PMS5003;30612;38.304;23.786;2023-12-20T04:27:20;1.40;0.40;0.00
44881;PMS5003;30612;38.304;23.786;2023-12-20T04:29:47;1.00;1.00;0.00
44881;PMS5003;30612;38.304;23.786;2023-12-20T04:32:15;1.00;1.00;0.60
44881;PMS5003;30612;38.304;23.786;2023-12-20T04:34:42;6.60;4.80;2.60
44881;PMS5003;30612;38.304;23.786;2023-12-20T04:37:09;10.00;4.40;2.60
44881;PMS5003;30612;38.304;23.786;2023-12-20T04:39:37;4.00;3.00;2.60
44881;PMS5003;30612;38.304;23.786;2023-12-20T04:42:04;5.20;5.20;3.00
44881;PMS5003;30612;38.304;23.786;2023-12-20T04:44:32;7.40;6.40;3.00
44881;PMS5003;30612;38.304;23.786;2023-12-20T04:46:59;5.60;5.60;1.80
44881;PMS5003;30612;38.304;23.786;2023-12-20T04:49:26;3.00;3.00;2.20
44881;PMS5003;30612;38.304;23.786;2023-12-20T04:51:54;8.40;6.60;3.40
44881;PMS5003;30612;38.304;23.786;2023-12-20T04:54:22;4.80;4.80;1.00
44881;PMS5003;30612;38.304;23.786;2023-12-20T04:56:49;3.40;3.40;3.00
44881;PMS5003;30612;38.304;23.786;2023-12-20T04:59:16;4.00;4.00;3.00
44881;PMS5003;30612;38.304;23.786;2023-12-20T05:01:44;6.00;6.00;3.00
44881;PMS5003;30612;38.304;23.786;2023-12-20T05:04:11;4.00;4.00;3.00
44881;PMS5003;30612;38.304;23.786;2023-12-20T05:06:39;7.00;5.60;3.20
44881;PMS5003;30612;38.304;23.786;2023-12-20T05:09:06;9.40;6.80;4.00
44881;PMS5003;30612;38.304;23.786;2023-12-20T05:11:33;6.80;4.40;1.00
44881;PMS5003;30612;38.304;23.786;2023-12-20T05:14:01;7.80;7.40;4.80
44881;PMS5003;30612;38.304;23.786;2023-12-20T05:16:28;9.00;6.40;4.00
44881;PMS5003;30612;38.304;23.786;2023-12-20T05:18:55;9.60;6.80;5.20
44881;PMS5003;30612;38.304;23.786;2023-12-20T05:21:23;8.20;6.60;3.20
44881;PMS5003;30612;38.304;23.786;2023-12-20T05:23:50;13.40;9.00;6.00
44881;PMS5003;30612;38.304;23.786;2023-12-20T05:26:18;8.00;7.60;4.00
44881;PMS5003;30612;38.304;23.786;2023-12-20T05:28:45;5.60;5.60;3.00
44881;PMS5003;30612;38.304;23.786;2023-12-20T05:31:13;6.80;6.80;4.40
44881;PMS5003;30612;38.304;23.786;2023-12-20T05:33:40;7.60;5.60;3.00
44881;PMS5003;30612;38.304;23.786;2023-12-20T05:36:08;6.20;6.20;4.00
44881;PMS5003;30612;38.304;23.786;2023-12-20T05:38:38;6.00;6.00;3.80
44881;PMS5003;30612;38.304;23.786;2023-12-20T05:41:05;11.60;9.20;4.00
44881;PMS5003;30612;38.304;23.786;2023-12-20T05:43:33;4.40;4.40;3.00
44881;PMS5003;30612;38.304;23.786;2023-12-20T05:46:00;5.20;4.00;3.00
44881;PMS5003;30612;38.304;23.786;2023-12-20T05:48:27;3.40;3.40;1.00
44881;PMS5003;30612;38.304;23.786;2023-12-20T05:50:55;9.60;6.60;3.00
44881;PMS5003;30612;38.304;23.786;2023-12-20T05:53:23;9.00;7.40;4.00
44881;PMS5003;30612;38.304;23.786;2023-12-20T05:55:50;5.20;5.20;2.60
44881;PMS5003;30612;38.304;23.786;2023-12-20T05:58:17;4.00;4.00;1.80
44881;PMS5003;30612;38.304;23.786;2023-12-20T06:00:45;6.00;5.20;2.20
44881;PMS5003;30612;38.304;23.786;2023-12-20T06:03:12;6.40;6.40;3.80
44881;PMS5003;30612;38.304;23.786;2023-12-20T06:05:40;9.00;7.00;4.00
44881;PMS5003;30612;38.304;23.786;2023-12-20T06:08:07;9.00;9.00;4.00
44881;PMS5003;30612;38.304;23.786;2023-12-20T06:10:34;6.40;6.40;4.80
44881;PMS5003;30612;38.304;23.786;2023-12-20T06:13:02;11.20;6.60;3.00
44881;PMS5003;30612;38.304;23.786;2023-12-20T06:15:31;7.60;6.60;3.40
44881;PMS5003;30612;38.304;23.786;2023-12-20T06:17:58;10.80;8.20;4.80
44881;PMS5003;30612;38.304;23.786;2023-12-20T06:20:26;6.80;6.80;4.40
44881;PMS5003;30612;38.304;23.786;2023-12-20T06:22:53;6.40;6.40;3.20
44881;PMS5003;30612;38.304;23.786;2023-12-20T06:25:21;8.60;6.20;4.00
44881;PMS5003;30612;38.304;23.786;2023-12-20T06:27:48;7.00;7.00;3.00
44881;PMS5003;30612;38.304;23.786;2023-12-20T06:30:16;7.80;6.00;3.00
44881;PMS5003;30612;38.304;23.786;2023-12-20T06:32:43;7.60;6.20;3.60
44881;PMS5003;30612;38.304;23.786;2023-12-20T06:35:11;6.40;6.00;3.00
44881;PMS5003;30612;38.304;23.786;2023-12-20T06:37:38;4.00;4.00;1.80
44881;PMS5003;30612;38.304;23.786;2023-12-20T06:40:10;3.80;3.80;1.80
44881;PMS5003;30612;38.304;23.786;2023-12-20T06:42:44;6.20;6.20;4.00
44881;PMS5003;30612;38.304;23.786;2023-12-20T06:45:24;5.20;4.00;3.00
44881;PMS5003;30612;38.304;23.786;2023-12-20T06:47:51;3.40;3.40;1.00
44881;PMS5003;30612;38.304;23.786;2023-12-20T06:50:19;4.00;1.80;1.00
44881;PMS5003;30612;38.304;23.786;2023-12-20T06:52:47;1.60;0.00;0.00
44881;PMS5003;30612;38.304;23.786;2023-12-20T06:55:14;3.80;3.00;1.00
44881;PMS5003;30612;38.304;23.786;2023-12-20T06:57:42;4.80;4.00;1.00
44881;PMS5003;30612;38.304;23.786;2023-12-20T07:00:10;2.20;2.20;1.00
44881;PMS5003;30612;38.304;23.786;2023-12-20T07:02:38;3.00;3.00;1.00
44881;PMS5003;30612;38.304;23.786;2023-12-20T07:05:06;1.80;1.80;0.00
44881;PMS5003;30612;38.304;23.786;2023-12-20T07:07:33;3.40;3.40;1.00
44881;PMS5003;30612;38.304;23.786;2023-12-20T07:10:59;4.00;4.00;1.00
44881;PMS5003;30612;38.304;23.786;2023-12-20T07:13:26;3.60;3.00;1.00
44881;PMS5003;30612;38.304;23.786;2023-12-20T07:15:54;3.00;3.00;1.00
44881;PMS5003;30612;38.304;23.786;2023-12-20T07:18:21;2.60;1.00;0.80
44881;PMS5003;30612;38.304;23.786;2023-12-20T07:20:49;1.40;1.40;0.00
44881;PMS5003;30612;38.304;23.786;2023-12-20T07:23:16;3.00;1.80;1.00
44881;PMS5003;30612;38.304;23.786;2023-12-20T07:25:43;5.20;3.00;1.00
44881;PMS5003;30612;38.304;23.786;2023-12-20T07:28:11;3.00;3.00;1.00
44881;PMS5003;30612;38.304;23.786;2023-12-20T07:30:38;3.40;3.40;1.00
44881;PMS5003;30612;38.304;23.786;2023-12-20T07:33:06;5.40;2.80;0.40
44881;PMS5003;30612;38.304;23.786;2023-12-20T07:35:36;3.00;3.00;1.00
44881;PMS5003;30612;38.304;23.786;2023-12-20T07:38:03;6.20;4.00;2.20
44881;PMS5003;30612;38.304;23.786;2023-12-20T07:40:31;6.20;4.00;1.80
44881;PMS5003;30612;38.304;23.786;2023-12-20T07:42:58;6.80;4.40;1.00
44881;PMS5003;30612;38.304;23.786;2023-12-20T07:45:26;1.80;1.80;0.00
44881;PMS5003;30612;38.304;23.786;2023-12-20T07:47:53;1.80;1.80;0.20
44881;PMS5003;30612;38.304;23.786;2023-12-20T07:50:20;1.20;1.20;0.00
44881;PMS5003;30612;38.304;23.786;2023-12-20T07:52:48;4.00;1.20;1.00
44881;PMS5003;30612;38.304;23.786;2023-12-20T07:55:15;2.00;2.00;0.20
44881;PMS5003;30612;38.304;23.786;2023-12-20T07:57:43;1.20;1.20;0.20
44881;PMS5003;30612;38.304;23.786;2023-12-20T08:00:11;1.20;1.20;0.00
44881;PMS5003;30612;38.304;23.786;2023-12-20T08:02:38;1.00;1.00;0.00
44881;PMS5003;30612;38.304;23.786;2023-12-20T08:05:06;1.00;1.00;0.20
44881;PMS5003;30612;38.304;23.786;2023-12-20T08:07:34;4.00;1.00;1.00
44881;PMS5003;30612;38.304;23.786;2023-12-20T08:10:01;1.20;1.20;0.00
44881;PMS5003;30612;38.304;23.786;2023-12-20T08:12:29;2.00;1.00;0.40
44881;PMS5003;30612;38.304;23.786;2023-12-20T08:14:56;2.00;2.00;0.00
44881;PMS5003;30612;38.304;23.786;2023-12-20T08:17:24;1.00;1.00;0.20
44881;PMS5003;30612;38.304;23.786;2023-12-20T08:19:51;1.80;1.80;1.00
44881;PMS5003;30612;38.304;23.786;2023-12-20T08:22:18;1.00;1.00;1.00
44881;PMS5003;30612;38.304;23.786;2023-12-20T08:24:46;1.60;1.60;1.00
44881;PMS5003;30612;38.304;23.786;2023-12-20T08:27:14;2.40;2.00;1.00
44881;PMS5003;30612;38.304;23.786;2023-12-20T08:29:43;1.40;1.40;0.80
44881;PMS5003;30612;38.304;23.786;2023-12-20T08:32:12;2.00;2.00;1.00
44881;PMS5003;30612;38.304;23.786;2023-12-20T08:34:39;1.00;1.00;0.00
44881;PMS5003;30612;38.304;23.786;2023-12-20T08:37:07;4.20;2.40;1.00
44881;PMS5003;30612;38.304;23.786;2023-12-20T08:39:35;8.80;5.40;4.00
44881;PMS5003;30612;38.304;23.786;2023-12-20T08:42:02;8.20;7.00;3.20
44881;PMS5003;30612;38.304;23.786;2023-12-20T08:44:29;4.60;4.60;2.40
44881;PMS5003;30612;38.304;23.786;2023-12-20T08:46:57;4.00;2.80;1.00
44881;PMS5003;30612;38.304;23.786;2023-12-20T08:49:24;2.60;1.00;0.40
44881;PMS5003;30612;38.304;23.786;2023-12-20T08:51:52;1.40;1.40;0.00
44881;PMS5003;30612;38.304;23.786;2023-12-20T08:54:20;2.00;2.00;1.00
44881;PMS5003;30612;38.304;23.786;2023-12-20T08:56:47;8.00;7.00;3.20
44881;PMS5003;30612;38.304;23.786;2023-12-20T08:59:15;4.80;4.80;1.80
44881;PMS5003;30612;38.304;23.786;2023-12-20T09:01:42;4.60;3.60;1.80
44881;PMS5003;30612;38.304;23.786;2023-12-20T09:04:10;3.20;3.20;1.00
44881;PMS5003;30612;38.304;23.786;2023-12-20T09:06:37;4.80;4.80;1.40
44881;PMS5003;30612;38.304;23.786;2023-12-20T09:09:04;7.00;5.00;2.00
44881;PMS5003;30612;38.304;23.786;2023-12-20T09:11:33;5.40;5.00;1.00
44881;PMS5003;30612;38.304;23.786;2023-12-20T09:14:00;8.80;5.00;2.80
44881;PMS5003;30612;38.304;23.786;2023-12-20T09:16:27;10.80;10.20;5.00
44881;PMS5003;30612;38.304;23.786;2023-12-20T09:18:55;7.80;7.80;4.00
44881;PMS5003;30612;38.304;23.786;2023-12-20T09:21:23;7.20;7.00;4.00
44881;PMS5003;30612;38.304;23.786;2023-12-20T09:23:51;8.40;4.60;2.40
44881;PMS5003;30612;38.304;23.786;2023-12-20T09:26:18;11.40;9.40;5.00
44881;PMS5003;30612;38.304;23.786;2023-12-20T09:28:45;6.80;5.00;3.60
44881;PMS5003;30612;38.304;23.786;2023-12-20T09:31:13;7.00;4.80;2.00
44881;PMS5003;30612;38.304;23.786;2023-12-20T09:33:40;5.00;5.00;2.00
44881;PMS5003;30612;38.304;23.786;2023-12-20T09:36:08;6.60;5.00;2.00
44881;PMS5003;30612;38.304;23.786;2023-12-20T09:38:35;4.60;4.60;1.80
44881;PMS5003;30612;38.304;23.786;2023-12-20T09:41:03;7.80;7.40;2.00
44881;PMS5003;30612;38.304;23.786;2023-12-20T09:43:31;8.40;6.20;4.00
44881;PMS5003;30612;38.304;23.786;2023-12-20T09:46:03;11.00;9.40;5.40
44881;PMS5003;30612;38.304;23.786;2023-12-20T09:48:33;9.00;8.40;4.40
44881;PMS5003;30612;38.304;23.786;2023-12-20T09:51:00;17.20;14.20;9.00
44881;PMS5003;30612;38.304;23.786;2023-12-20T09:53:28;15.80;15.20;11.00
44881;PMS5003;30612;38.304;23.786;2023-12-20T09:55:59;11.60;10.80;5.00
44881;PMS5003;30612;38.304;23.786;2023-12-20T09:58:27;16.60;16.20;11.00
44881;PMS5003;30612;38.304;23.786;2023-12-20T10:00:55;11.20;9.00;4.80
44881;PMS5003;30612;38.304;23.786;2023-12-20T10:03:24;11.00;10.00;5.40
44881;PMS5003;30612;38.304;23.786;2023-12-20T10:05:54;8.20;8.20;5.00
44881;PMS5003;30612;38.304;23.786;2023-12-20T10:08:24;13.20;13.20;8.60
44881;PMS5003;30612;38.304;23.786;2023-12-20T10:10:52;8.60;8.60;5.00
44881;PMS5003;30612;38.304;23.786;2023-12-20T10:13:19;9.00;8.00;5.00
44881;PMS5003;30612;38.304;23.786;2023-12-20T10:15:47;8.00;8.00;4.80
44881;PMS5003;30612;38.304;23.786;2023-12-20T10:18:14;10.00;9.00;4.00
44881;PMS5003;30612;38.304;23.786;2023-12-20T10:20:42;8.00;8.00;5.00
44881;PMS5003;30612;38.304;23.786;2023-12-20T10:23:10;8.60;5.40;4.00
44881;PMS5003;30612;38.304;23.786;2023-12-20T10:25:37;14.80;12.60;5.60
44881;PMS5003;30612;38.304;23.786;2023-12-20T10:28:09;19.00;12.60;7.60
44881;PMS5003;30612;38.304;23.786;2023-12-20T10:30:41;13.80;12.20;8.00
44881;PMS5003;30612;38.304;23.786;2023-12-20T10:33:09;12.00;12.00;6.00
44881;PMS5003;30612;38.304;23.786;2023-12-20T10:35:38;5.20;5.20;2.80
44881;PMS5003;30612;38.304;23.786;2023-12-20T10:38:10;5.00;4.80;2.00
44881;PMS5003;30612;38.304;23.786;2023-12-20T10:40:40;8.00;5.60;2.80
44881;PMS5003;30612;38.304;23.786;2023-12-20T10:43:08;2.40;2.40;1.20
44881;PMS5003;30612;38.304;23.786;2023-12-20T10:45:36;4.00;2.40;1.20
44881;PMS5003;30612;38.304;23.786;2023-12-20T10:48:03;8.40;5.80;3.20
44881;PMS5003;30612;38.304;23.786;2023-12-20T10:50:31;6.20;4.80;2.00
44881;PMS5003;30612;38.304;23.786;2023-12-20T10:52:59;6.00;5.20;2.00
44881;PMS5003;30612;38.304;23.786;2023-12-20T10:55:27;2.00;2.00;0.80
44881;PMS5003;30612;38.304;23.786;2023-12-20T10:58:08;2.40;2.40;1.00
44881;PMS5003;30612;38.304;23.786;2023-12-20T11:00:38;4.60;4.60;1.00
44881;PMS5003;30612;38.304;23.786;2023-12-20T11:03:08;5.00;5.00;1.60
44881;PMS5003;30612;38.304;23.786;2023-12-20T11:14:03;2.80;2.00;1.00
44881;PMS5003;30612;38.304;23.786;2023-12-20T11:16:33;3.20;3.20;1.00
44881;PMS5003;30612;38.304;23.786;2023-12-20T11:19:17;4.80;2.00;1.00
44881;PMS5003;30612;38.304;23.786;2023-12-20T11:21:45;4.00;2.00;1.00
44881;PMS5003;30612;38.304;23.786;2023-12-20T11:24:13;1.80;1.80;1.00
44881;PMS5003;30612;38.304;23.786;2023-12-20T11:26:46;4.00;4.00;1.00
44881;PMS5003;30612;38.304;23.786;2023-12-20T11:29:33;4.40;4.00;1.20
44881;PMS5003;30612;38.304;23.786;2023-12-20T11:32:50;5.00;5.00;2.00
44881;PMS5003;30612;38.304;23.786;2023-12-20T11:34:59;7.20;5.00;2.00
44881;PMS5003;30612;38.304;23.786;2023-12-20T11:37:28;5.00;3.60;2.00
44881;PMS5003;30612;38.304;23.786;2023-12-20T11:40:06;4.60;4.60;2.00
44881;PMS5003;30612;38.304;23.786;2023-12-20T11:42:43;2.00;2.00;1.20
44881;PMS5003;30612;38.304;23.786;2023-12-20T11:45:15;2.40;2.40;2.00
44881;PMS5003;30612;38.304;23.786;2023-12-20T11:47:45;6.40;4.00;2.40
44881;PMS5003;30612;38.304;23.786;2023-12-20T11:50:14;0.80;0.80;0.00
44881;PMS5003;30612;38.304;23.786;2023-12-20T11:52:42;4.00;1.40;1.00
44881;PMS5003;30612;38.304;23.786;2023-12-20T11:55:10;2.00;2.00;1.40
44881;PMS5003;30612;38.304;23.786;2023-12-20T11:57:38;5.20;4.80;2.80
44881;PMS5003;30612;38.304;23.786;2023-12-20T12:00:05;4.60;4.60;2.00
44881;PMS5003;30612;38.304;23.786;2023-12-20T12:02:39;2.40;1.80;1.00
44881;PMS5003;30612;38.304;23.786;2023-12-20T12:05:07;2.80;2.00;0.00
44881;PMS5003;30612;38.304;23.786;2023-12-20T12:07:35;16.20;12.40;6.80
44881;PMS5003;30612;38.304;23.786;2023-12-20T12:10:02;5.60;4.80;4.00
44881;PMS5003;30612;38.304;23.786;2023-12-20T12:12:30;6.80;6.80;4.40
44881;PMS5003;30612;38.304;23.786;2023-12-20T12:14:59;8.00;8.00;5.60
44881;PMS5003;30612;38.304;23.786;2023-12-20T12:17:26;12.00;10.80;6.40
44881;PMS5003;30612;38.304;23.786;2023-12-20T12:20:01;8.60;8.40;4.80
44881;PMS5003;30612;38.304;23.786;2023-12-20T12:22:30;10.60;9.80;6.00
44881;PMS5003;30612;38.304;23.786;2023-12-20T12:24:59;14.40;12.40;8.00
44881;PMS5003;30612;38.304;23.786;2023-12-20T12:27:27;12.00;10.00;5.80
44881;PMS5003;30612;38.304;23.786;2023-12-20T12:30:02;9.40;8.80;5.00
44881;PMS5003;30612;38.304;23.786;2023-12-20T12:32:30;7.20;6.80;4.40
44881;PMS5003;30612;38.304;23.786;2023-12-20T12:34:59;8.40;8.40;5.20
44881;PMS5003;30612;38.304;23.786;2023-12-20T12:37:27;11.60;9.20;4.60
44881;PMS5003;30612;38.304;23.786;2023-12-20T12:39:54;11.00;8.80;5.00
44881;PMS5003;30612;38.304;23.786;2023-12-20T12:42:22;10.00;8.20;5.20
44881;PMS5003;30612;38.304;23.786;2023-12-20T12:44:52;18.40;14.00;9.00
44881;PMS5003;30612;38.304;23.786;2023-12-20T12:47:20;14.80;13.60;8.60
44881;PMS5003;30612;38.304;23.786;2023-12-20T12:49:49;14.60;14.00;8.80
44881;PMS5003;30612;38.304;23.786;2023-12-20T12:52:19;9.20;9.20;4.80
44881;PMS5003;30612;38.304;23.786;2023-12-20T12:54:47;10.20;10.20;5.40
44881;PMS5003;30612;38.304;23.786;2023-12-20T12:57:14;8.60;8.60;5.80
44881;PMS5003;30612;38.304;23.786;2023-12-20T12:59:45;8.40;5.60;4.20
44881;PMS5003;30612;38.304;23.786;2023-12-20T13:02:13;6.00;6.00;4.20
44881;PMS5003;30612;38.304;23.786;2023-12-20T13:04:41;7.20;5.20;2.60
44881;PMS5003;30612;38.304;23.786;2023-12-20T13:07:09;5.60;5.60;2.60
44881;PMS5003;30612;38.304;23.786;2023-12-20T13:09:40;10.60;10.60;5.60
44881;PMS5003;30612;38.304;23.786;2023-12-20T13:12:07;12.80;11.40;7.40
44881;PMS5003;30612;38.304;23.786;2023-12-20T13:14:36;9.00;8.80;6.00
44881;PMS5003;30612;38.304;23.786;2023-12-20T13:17:06;12.60;11.40;9.00
44881;PMS5003;30612;38.304;23.786;2023-12-20T13:19:33;11.60;11.20;6.60
44881;PMS5003;30612;38.304;23.786;2023-12-20T13:22:01;7.00;6.20;3.20
44881;PMS5003;30612;38.304;23.786;2023-12-20T13:24:29;10.60;10.60;5.60
44881;PMS5003;30612;38.304;23.786;2023-12-20T13:26:56;12.40;12.40;7.20
44881;PMS5003;30612;38.304;23.786;2023-12-20T13:29:24;6.20;6.00;4.20
44881;PMS5003;30612;38.304;23.786;2023-12-20T13:31:54;6.00;6.00;2.60
44881;PMS5003;30612;38.304;23.786;2023-12-20T13:34:22;5.00;5.00;2.20
44881;PMS5003;30612;38.304;23.786;2023-12-20T13:36:50;5.60;5.00;2.00
44881;PMS5003;30612;38.304;23.786;2023-12-20T13:39:19;5.20;4.00;1.00
44881;PMS5003;30612;38.304;23.786;2023-12-20T13:41:46;2.00;2.00;1.20
44881;PMS5003;30612;38.304;23.786;2023-12-20T13:44:14;4.60;4.20;1.60
44881;PMS5003;30612;38.304;23.786;2023-12-20T13:46:42;5.40;5.40;3.20
44881;PMS5003;30612;38.304;23.786;2023-12-20T13:49:15;4.40;4.40;2.20
44881;PMS5003;30612;38.304;23.786;2023-12-20T13:51:43;7.00;4.20;1.00
44881;PMS5003;30612;38.304;23.786;2023-12-20T13:54:11;2.60;2.60;2.00
44881;PMS5003;30612;38.304;23.786;2023-12-20T13:56:44;5.00;5.00;2.40
44881;PMS5003;30612;38.304;23.786;2023-12-20T13:59:32;2.00;2.00;1.00
44881;PMS5003;30612;38.304;23.786;2023-12-20T14:02:02;3.60;3.60;1.00
44881;PMS5003;30612;38.304;23.786;2023-12-20T14:04:31;0.80;0.80;0.00
44881;PMS5003;30612;38.304;23.786;2023-12-20T14:07:09;2.00;2.00;1.00
44881;PMS5003;30612;38.304;23.786;2023-12-20T14:09:39;2.00;2.00;1.20
44881;PMS5003;30612;38.304;23.786;2023-12-20T14:12:13;5.00;3.60;1.00
44881;PMS5003;30612;38.304;23.786;2023-12-20T14:14:40;2.00;2.00;1.00
44881;PMS5003;30612;38.304;23.786;2023-12-20T14:17:08;2.00;2.00;1.60
44881;PMS5003;30612;38.304;23.786;2023-12-20T14:19:36;3.20;3.20;1.00
44881;PMS5003;30612;38.304;23.786;2023-12-20T14:22:08;1.00;1.00;0.00
44881;PMS5003;30612;38.304;23.786;2023-12-20T14:24:36;3.80;1.80;1.00